Terminal Aerodrome Forecast
Issued by NWS

Home | Current Version | Previous Version | Text Only | Print | Product List | Glossary On
Versions: 1 2 3 4 5 6 7 8 9 10 11 12 13 14 15
000
FTUS43 KIND 270500
TAFBMG
TAF
KBMG 270525Z 2706/2806 19005KT P6SM OVC035
     FM271300 19007KT 6SM -SHRA BR OVC025
     FM271600 22008KT 5SM -RA BR OVC010
     FM272300 27006KT 6SM -SHRA BR OVC012
      AMD LTD TO CLD VIS AND WIND TIL 271400=

USA.gov is the U.S. government's official web portal to all federal, state and local government web resources and services.